createdAt,value
2022-08-23T00:00:13.326Z,19.63
2022-08-23T00:01:21.276Z,22.15
2022-08-23T00:02:27.664Z,18.92
2022-08-23T00:03:29.629Z,19.30
2022-08-23T00:04:37.161Z,22.50
2022-08-23T00:05:40.363Z,24.15
2022-08-23T00:06:42.826Z,19.13
2022-08-23T00:07:45.072Z,19.33
2022-08-23T00:08:48.957Z,23.52
2022-08-23T00:09:50.778Z,24.17
2022-08-23T00:10:52.784Z,25.10
2022-08-23T00:12:03.296Z,18.55
2022-08-23T00:13:05.035Z,18.30
2022-08-23T00:14:17.648Z,18.52
2022-08-23T00:15:21.170Z,24.67
2022-08-23T00:16:23.105Z,19.67
2022-08-23T00:17:33.797Z,25.20
2022-08-23T00:18:36.591Z,23.02
2022-08-23T00:19:39.803Z,26.80
2022-08-23T00:20:41.698Z,19.17
2022-08-23T00:21:44.922Z,20.02
2022-08-23T00:22:46.632Z,18.27
2022-08-23T00:23:48.499Z,22.73
2022-08-23T00:24:50.243Z,25.92
2022-08-23T00:25:51.968Z,23.13
2022-08-23T00:26:57.865Z,24.65
2022-08-23T00:27:59.800Z,23.38
2022-08-23T00:29:01.720Z,25.20
2022-08-23T00:30:06.944Z,20.83
2022-08-23T00:31:08.743Z,17.20
2022-08-23T00:32:16.630Z,21.38
2022-08-23T00:33:18.568Z,18.70
2022-08-23T00:34:22.019Z,20.05
2022-08-23T00:35:27.325Z,16.70
2022-08-23T00:36:29.237Z,18.02
2022-08-23T00:37:34.615Z,20.02
2022-08-23T00:38:36.599Z,16.77
2022-08-23T00:39:40.398Z,17.27
2022-08-23T00:40:51.135Z,24.27
2022-08-23T00:41:56.032Z,24.00
2022-08-23T00:43:28.096Z,17.90
2022-08-23T00:44:52.375Z,17.88
2022-08-23T00:46:18.673Z,19.67
2022-08-23T00:47:40.203Z,18.60
2022-08-23T00:48:42.796Z,18.85
2022-08-23T00:49:48.781Z,21.30
2022-08-23T00:51:08.423Z,20.67
2022-08-23T00:52:18.653Z,19.25
2022-08-23T00:53:27.402Z,20.27
2022-08-23T00:54:31.053Z,19.42
2022-08-23T00:55:34.545Z,23.92
2022-08-23T00:56:36.993Z,19.17
2022-08-23T00:57:39.710Z,18.88
2022-08-23T00:58:42.836Z,23.48
2022-08-23T00:59:45.349Z,24.23
2022-08-23T01:00:49.972Z,23.95
2022-08-23T01:01:52.730Z,24.17
2022-08-23T01:02:55.459Z,21.42
2022-08-23T01:04:04.912Z,23.02
2022-08-23T01:05:07.988Z,19.73
2022-08-23T01:06:30.310Z,19.08
2022-08-23T01:07:46.001Z,22.23
2022-08-23T01:08:52.463Z,18.35
2022-08-23T01:09:59.536Z,20.92
2022-08-23T01:11:11.727Z,18.73
2022-08-23T01:12:32.684Z,23.50
2022-08-23T01:13:44.836Z,25.70
2022-08-23T01:15:11.325Z,24.55
2022-08-23T01:16:27.698Z,18.58
2022-08-23T01:17:38.152Z,19.20
2022-08-23T01:18:41.291Z,19.20
2022-08-23T01:19:59.467Z,18.02
2022-08-23T01:21:16.555Z,17.02
2022-08-23T01:22:26.449Z,22.02
2022-08-23T01:23:45.397Z,22.10
2022-08-23T01:25:07.944Z,16.83
2022-08-23T01:26:11.838Z,17.25
2022-08-23T01:27:13.951Z,18.38
2022-08-23T01:28:15.888Z,16.23
2022-08-23T01:29:17.623Z,19.25
2022-08-23T01:30:24.334Z,21.00
2022-08-23T01:32:45.026Z,19.17
2022-08-23T01:33:50.645Z,15.98
2022-08-23T01:34:52.413Z,18.27
2022-08-23T01:35:57.058Z,16.70
2022-08-23T01:36:59.040Z,18.95
2022-08-23T01:38:01.206Z,17.00
2022-08-23T01:39:08.204Z,16.17
2022-08-23T01:40:10.281Z,16.80
2022-08-23T01:41:12.925Z,16.38
2022-08-23T01:42:14.656Z,17.35
2022-08-23T01:43:19.910Z,17.33
2022-08-23T01:44:21.612Z,16.20
2022-08-23T01:45:23.465Z,16.40
2022-08-23T01:46:26.977Z,18.70
2022-08-23T01:47:28.732Z,15.60
2022-08-23T01:48:30.629Z,18.60
2022-08-23T01:49:34.717Z,15.82
2022-08-23T01:51:39.415Z,17.65
2022-08-23T01:52:47.130Z,17.88
2022-08-23T01:53:49.407Z,17.38
2022-08-23T01:54:51.236Z,18.83
2022-08-23T01:55:53.053Z,18.67
2022-08-23T01:56:55.171Z,19.92
2022-08-23T01:57:58.826Z,20.42
2022-08-23T01:59:00.724Z,16.65
2022-08-23T02:00:05.782Z,17.73
2022-08-23T02:01:08.074Z,16.02
2022-08-23T02:02:09.908Z,16.00
2022-08-23T02:03:12.459Z,16.55
2022-08-23T02:04:14.462Z,17.38
2022-08-23T02:05:17.427Z,18.60
2022-08-23T02:06:21.515Z,17.90
2022-08-23T02:07:27.539Z,15.73
2022-08-23T02:08:47.879Z,16.38
2022-08-23T02:09:49.564Z,19.42
2022-08-23T02:10:51.470Z,19.20
2022-08-23T02:11:53.353Z,15.65
2022-08-23T02:12:55.233Z,20.42
2022-08-23T02:13:58.807Z,18.40
2022-08-23T02:15:00.946Z,20.48
2022-08-23T02:16:02.882Z,17.77
2022-08-23T02:17:05.162Z,18.77
2022-08-23T02:18:06.928Z,17.10
2022-08-23T02:19:11.342Z,19.30
2022-08-23T02:20:14.177Z,21.23
2022-08-23T02:21:16.291Z,17.58
2022-08-23T02:22:18.729Z,19.52
2022-08-23T02:23:21.393Z,16.65
2022-08-23T02:24:25.604Z,19.67
2022-08-23T02:25:27.724Z,18.55
2022-08-23T02:26:31.292Z,16.85
2022-08-23T02:27:33.239Z,17.20
2022-08-23T02:28:35.198Z,17.67
2022-08-23T02:29:39.656Z,15.52
2022-08-23T02:30:41.564Z,16.77
2022-08-23T02:31:46.813Z,17.40
2022-08-23T02:32:48.516Z,17.58
2022-08-23T02:33:50.398Z,15.88
2022-08-23T02:35:05.289Z,16.80
2022-08-23T02:36:07.973Z,16.77
2022-08-23T02:37:11.533Z,18.17
2022-08-23T02:38:13.507Z,17.30
2022-08-23T02:39:18.028Z,17.33
2022-08-23T02:40:20.298Z,16.48
2022-08-23T02:41:22.992Z,16.58
2022-08-23T02:42:24.693Z,17.30
2022-08-23T02:43:27.441Z,15.65
2022-08-23T02:44:30.108Z,18.38
2022-08-23T02:45:32.713Z,17.55
2022-08-23T02:46:34.571Z,17.83
2022-08-23T02:47:36.913Z,18.42
2022-08-23T02:48:39.275Z,17.20
2022-08-23T02:49:41.594Z,16.02
2022-08-23T02:50:43.680Z,15.65
2022-08-23T02:51:45.904Z,15.63
2022-08-23T02:52:48.027Z,17.10
2022-08-23T02:53:49.782Z,15.25
2022-08-23T02:54:51.618Z,15.43
2022-08-23T02:55:59.151Z,16.77
2022-08-23T02:57:01.071Z,15.25
2022-08-23T02:58:03.143Z,18.85
2022-08-23T02:59:06.174Z,16.83
2022-08-23T03:00:10.541Z,18.15
2022-08-23T03:01:20.612Z,16.67
2022-08-23T03:02:22.549Z,16.55
2022-08-23T03:03:24.924Z,15.90
2022-08-23T03:04:27.110Z,18.73
2022-08-23T03:05:30.427Z,16.30
2022-08-23T03:06:32.212Z,16.30
2022-08-23T03:07:34.228Z,15.88
2022-08-23T03:08:36.693Z,15.23
2022-08-23T03:09:38.487Z,15.82
2022-08-23T03:10:48.682Z,15.32
2022-08-23T03:11:50.456Z,15.35
2022-08-23T03:12:52.197Z,14.63
2022-08-23T03:13:56.303Z,15.43
2022-08-23T03:14:58.084Z,14.85
2022-08-23T03:15:59.810Z,15.13
2022-08-23T03:17:01.528Z,15.00
2022-08-23T03:18:03.270Z,15.25
2022-08-23T03:19:05.103Z,15.10
2022-08-23T03:20:08.003Z,16.17
2022-08-23T03:21:10.285Z,15.38
2022-08-23T03:22:12.088Z,14.85
2022-08-23T03:23:13.811Z,14.13
2022-08-23T03:24:15.510Z,14.20
2022-08-23T03:25:18.053Z,15.75
2022-08-23T03:26:20.274Z,14.55
2022-08-23T03:27:22.132Z,13.48
2022-08-23T03:28:24.611Z,15.82
2022-08-23T03:29:26.455Z,15.55
2022-08-23T03:30:28.313Z,16.05
2022-08-23T03:31:30.494Z,14.85
2022-08-23T03:32:33.421Z,15.27
2022-08-23T03:33:35.662Z,16.15
2022-08-23T03:34:37.489Z,15.45
2022-08-23T03:35:39.245Z,14.70
2022-08-23T03:36:40.964Z,15.40
2022-08-23T03:37:42.660Z,13.98
2022-08-23T03:38:45.286Z,14.63
2022-08-23T03:39:47.068Z,14.73
2022-08-23T03:40:52.494Z,14.48
2022-08-23T03:41:54.402Z,14.75
2022-08-23T03:42:56.303Z,13.75
2022-08-23T03:43:58.193Z,14.45
2022-08-23T03:45:02.426Z,14.45
2022-08-23T03:46:06.840Z,14.05
2022-08-23T03:47:08.735Z,14.40
2022-08-23T03:48:10.629Z,13.93
2022-08-23T03:49:12.320Z,14.65
2022-08-23T03:50:14.072Z,14.38
2022-08-23T03:51:15.851Z,13.55
2022-08-23T03:52:17.774Z,13.95
2022-08-23T03:53:19.482Z,14.05
2022-08-23T03:54:22.138Z,14.18
2022-08-23T03:55:24.645Z,13.57
2022-08-23T03:56:26.311Z,13.45
2022-08-23T03:57:28.250Z,13.43
2022-08-23T03:58:30.167Z,12.85
2022-08-23T03:59:34.040Z,13.18
2022-08-23T04:00:35.849Z,13.77
2022-08-23T04:01:37.671Z,12.35
2022-08-23T04:02:40.139Z,12.82
2022-08-23T04:03:42.428Z,12.68
2022-08-23T04:04:44.345Z,13.50
2022-08-23T04:05:47.128Z,12.90
2022-08-23T04:06:49.301Z,13.23
2022-08-23T04:07:51.532Z,13.95
2022-08-23T04:08:54.674Z,14.25
2022-08-23T04:09:56.471Z,13.40
2022-08-23T04:10:58.279Z,11.88
2022-08-23T04:12:00.327Z,11.63
2022-08-23T04:13:02.625Z,11.88
2022-08-23T04:14:04.454Z,13.63
2022-08-23T04:15:06.762Z,14.25
2022-08-23T04:16:09.147Z,13.25
2022-08-23T04:17:11.677Z,12.50
2022-08-23T04:18:14.018Z,13.27
2022-08-23T04:19:16.199Z,12.02
2022-08-23T04:20:18.335Z,12.77
2022-08-23T04:21:22.871Z,12.73
2022-08-23T04:22:24.832Z,12.15
2022-08-23T04:23:27.982Z,11.88
2022-08-23T04:24:30.242Z,11.35
2022-08-23T04:25:35.611Z,10.90
2022-08-23T04:26:38.081Z,11.57
2022-08-23T04:27:39.851Z,12.27
2022-08-23T04:28:41.941Z,10.80
2022-08-23T04:29:43.749Z,12.18
2022-08-23T04:30:46.956Z,11.45
2022-08-23T04:31:49.081Z,11.57
2022-08-23T04:32:50.811Z,10.95
2022-08-23T04:33:54.411Z,10.38
2022-08-23T04:34:56.102Z,11.70
2022-08-23T04:35:59.076Z,11.05
2022-08-23T04:37:01.101Z,10.85
2022-08-23T04:38:04.052Z,11.00
2022-08-23T04:39:26.529Z,10.98
2022-08-23T04:40:46.732Z,10.88
2022-08-23T04:42:07.364Z,10.60
2022-08-23T04:43:09.184Z,10.90
2022-08-23T04:44:10.947Z,10.40
2022-08-23T04:45:14.396Z,11.18
2022-08-23T04:46:16.769Z,10.60
2022-08-23T04:47:18.663Z,10.43
2022-08-23T04:48:20.612Z,10.75
2022-08-23T04:49:24.450Z,11.10
2022-08-23T04:50:26.533Z,10.63
2022-08-23T04:51:28.947Z,10.32
2022-08-23T04:52:30.624Z,9.70
2022-08-23T04:53:35.590Z,10.02
2022-08-23T04:54:37.575Z,9.57
2022-08-23T04:55:39.308Z,9.48
2022-08-23T04:56:41.311Z,9.13
2022-08-23T04:57:43.569Z,9.85
2022-08-23T04:58:45.421Z,9.27
2022-08-23T04:59:47.300Z,9.27
2022-08-23T05:00:51.672Z,8.95
2022-08-23T05:01:53.525Z,8.55
2022-08-23T05:02:55.521Z,8.85
2022-08-23T05:03:57.392Z,8.13
2022-08-23T05:04:59.089Z,8.23
2022-08-23T05:06:01.673Z,8.18
2022-08-23T05:07:04.108Z,7.82
2022-08-23T05:08:05.904Z,7.95
2022-08-23T05:09:07.732Z,8.32
2022-08-23T05:10:12.745Z,7.88
2022-08-23T05:11:14.914Z,8.07
2022-08-23T05:12:16.655Z,7.53
2022-08-23T05:13:18.647Z,7.90
2022-08-23T05:14:20.371Z,8.68
2022-08-23T05:15:22.155Z,7.38
2022-08-23T05:16:24.020Z,7.72
2022-08-23T05:17:25.922Z,7.72
2022-08-23T05:18:28.131Z,7.75
2022-08-23T05:19:29.982Z,7.90
2022-08-23T05:20:32.279Z,7.90
2022-08-23T05:21:33.990Z,7.60
2022-08-23T05:22:38.687Z,7.00
2022-08-23T05:23:40.412Z,7.05
2022-08-23T05:24:42.123Z,7.18
2022-08-23T05:25:51.557Z,6.95
2022-08-23T05:27:57.118Z,7.28
2022-08-23T05:28:58.903Z,7.28
2022-08-23T05:30:00.624Z,7.32
2022-08-23T05:31:11.489Z,6.95
2022-08-23T05:32:13.647Z,6.93
2022-08-23T05:33:15.643Z,6.30
2022-08-23T05:34:17.641Z,6.72
2022-08-23T05:35:24.400Z,6.95
2022-08-23T05:36:26.149Z,7.07
2022-08-23T05:37:28.335Z,7.45
2022-08-23T05:38:30.509Z,6.85
2022-08-23T05:39:35.893Z,7.43
2022-08-23T05:40:38.524Z,5.95
2022-08-23T05:41:40.313Z,6.22
2022-08-23T05:42:42.439Z,7.10
2022-08-23T05:43:44.249Z,6.57
2022-08-23T05:44:46.042Z,6.65
2022-08-23T05:45:48.231Z,6.75
2022-08-23T05:46:49.935Z,6.60
2022-08-23T05:47:51.707Z,6.80
2022-08-23T05:48:57.554Z,6.68
2022-08-23T05:49:59.233Z,5.80
2022-08-23T05:51:13.821Z,6.10
2022-08-23T05:52:15.702Z,6.55
2022-08-23T05:53:17.421Z,6.10
2022-08-23T05:54:19.128Z,6.07
2022-08-23T05:55:21.919Z,5.88
2022-08-23T05:56:42.429Z,6.05
2022-08-23T05:57:47.152Z,5.57
2022-08-23T05:58:51.185Z,6.45
2022-08-23T05:59:52.859Z,5.78
2022-08-23T06:00:55.398Z,6.38
2022-08-23T06:01:57.488Z,5.68
2022-08-23T06:02:59.488Z,5.32
2022-08-23T06:04:03.143Z,6.15
2022-08-23T06:05:05.544Z,5.70
2022-08-23T06:06:08.226Z,6.20
2022-08-23T06:07:11.380Z,5.43
2022-08-23T06:08:13.132Z,5.55
2022-08-23T06:09:17.901Z,5.22
2022-08-23T06:10:21.335Z,5.35
2022-08-23T06:11:25.209Z,5.95
2022-08-23T06:12:27.129Z,5.90
2022-08-23T06:13:28.873Z,6.18
2022-08-23T06:14:30.685Z,5.30
2022-08-23T06:15:32.798Z,5.97
2022-08-23T06:16:40.435Z,4.70
2022-08-23T06:17:42.484Z,4.97
2022-08-23T06:18:45.024Z,5.32
2022-08-23T06:19:46.739Z,5.65
2022-08-23T06:20:48.498Z,5.97
2022-08-23T06:21:51.923Z,5.47
2022-08-23T06:22:54.263Z,5.35
2022-08-23T06:23:56.555Z,5.28
2022-08-23T06:24:58.473Z,5.10
2022-08-23T06:26:02.062Z,5.65
2022-08-23T06:27:03.931Z,5.40
2022-08-23T06:28:05.918Z,5.20
2022-08-23T06:29:11.399Z,5.35
2022-08-23T06:30:13.513Z,5.10
2022-08-23T06:31:15.588Z,5.03
2022-08-23T06:32:17.537Z,6.00
2022-08-23T06:33:20.323Z,5.28
2022-08-23T06:34:29.831Z,5.72
2022-08-23T06:35:39.369Z,5.28
2022-08-23T06:36:42.203Z,5.40
2022-08-23T06:37:44.882Z,5.15
2022-08-23T06:38:50.908Z,5.05
2022-08-23T06:39:53.132Z,4.55
2022-08-23T06:41:06.007Z,4.80
2022-08-23T06:42:36.407Z,4.95
2022-08-23T06:43:33.386Z,4.32
2022-08-23T06:44:36.386Z,4.32
2022-08-23T06:45:38.221Z,5.43
2022-08-23T06:46:40.337Z,5.00
2022-08-23T06:47:42.159Z,5.13
2022-08-23T06:48:45.657Z,4.78
2022-08-23T06:49:50.912Z,4.72
2022-08-23T06:50:59.923Z,5.55
2022-08-23T06:52:06.072Z,4.85
2022-08-23T06:53:10.103Z,5.57
2022-08-23T06:54:14.520Z,5.47
2022-08-23T06:55:16.647Z,4.93
2022-08-23T06:56:18.509Z,4.60
2022-08-23T06:57:20.747Z,5.05
2022-08-23T06:58:22.567Z,4.82
2022-08-23T06:59:24.812Z,4.63
2022-08-23T07:00:26.575Z,4.75
2022-08-23T07:01:46.632Z,5.07
2022-08-23T07:02:48.882Z,4.60
2022-08-23T07:03:55.587Z,5.18
2022-08-23T07:04:57.397Z,3.97
2022-08-23T07:05:59.326Z,4.68
2022-08-23T07:07:01.928Z,4.40
2022-08-23T07:08:03.890Z,4.10
2022-08-23T07:09:06.387Z,4.63
2022-08-23T07:10:09.672Z,4.80
2022-08-23T07:11:12.269Z,4.45
2022-08-23T07:12:14.107Z,4.47
2022-08-23T07:13:18.578Z,4.72
2022-08-23T07:14:22.405Z,4.25
2022-08-23T07:15:24.172Z,4.25
2022-08-23T07:16:26.338Z,3.83
2022-08-23T07:17:28.134Z,3.97
2022-08-23T07:18:30.424Z,4.15
2022-08-23T07:19:34.596Z,4.25
2022-08-23T07:20:36.314Z,4.15
2022-08-23T07:21:38.400Z,4.20
2022-08-23T07:22:40.505Z,4.30
2022-08-23T07:23:46.454Z,3.83
2022-08-23T07:24:48.399Z,4.53
2022-08-23T07:25:50.179Z,4.43
2022-08-23T07:26:52.376Z,4.47
2022-08-23T07:27:54.418Z,3.97
2022-08-23T07:28:57.097Z,3.95
2022-08-23T07:29:58.853Z,4.25
2022-08-23T07:31:18.867Z,4.35
2022-08-23T07:32:20.726Z,4.15
2022-08-23T07:33:22.930Z,3.83
2022-08-23T07:34:26.322Z,3.95
2022-08-23T07:35:28.468Z,3.75
2022-08-23T07:36:32.029Z,3.50
2022-08-23T07:37:33.708Z,4.78
2022-08-23T07:38:36.052Z,4.30
2022-08-23T07:39:38.079Z,3.75
2022-08-23T07:40:42.633Z,2.88
2022-08-23T07:41:45.109Z,4.03
2022-08-23T07:42:47.892Z,3.70
2022-08-23T07:43:50.325Z,3.65
2022-08-23T07:44:53.501Z,3.55
2022-08-23T07:45:55.639Z,3.88
2022-08-23T07:46:57.378Z,3.70
2022-08-23T07:48:01.893Z,4.10
2022-08-23T07:49:04.765Z,68.18
2022-08-23T07:50:07.237Z,44.40
2022-08-23T07:51:12.339Z,22.33
2022-08-23T07:52:14.440Z,16.50
2022-08-23T07:53:16.616Z,33.88
2022-08-23T07:54:38.460Z,7.85
2022-08-23T07:55:40.207Z,7.05
2022-08-23T07:56:41.983Z,10.05
2022-08-23T07:57:43.683Z,11.55
2022-08-23T07:58:45.601Z,6.80
2022-08-23T07:59:48.597Z,3.67
2022-08-23T08:00:52.113Z,4.60
2022-08-23T08:01:53.871Z,5.05
2022-08-23T08:02:55.674Z,4.82
2022-08-23T08:04:00.491Z,4.05
2022-08-23T08:05:02.319Z,4.43
2022-08-23T08:06:27.248Z,4.03
2022-08-23T08:07:28.979Z,4.40
2022-08-23T08:08:56.790Z,3.92
2022-08-23T08:11:00.565Z,4.15
2022-08-23T08:12:02.859Z,4.32
2022-08-23T08:13:05.346Z,4.05
2022-08-23T08:14:08.937Z,3.97
2022-08-23T08:15:10.822Z,4.22
2022-08-23T08:16:42.863Z,7.65
2022-08-23T08:17:48.113Z,9.30
2022-08-23T08:18:50.900Z,7.35
2022-08-23T08:19:52.779Z,11.10
2022-08-23T08:20:54.527Z,6.03
2022-08-23T08:21:56.363Z,5.07
2022-08-23T08:23:00.924Z,4.97
2022-08-23T08:24:04.610Z,10.77
2022-08-23T08:25:08.350Z,4.70
2022-08-23T08:26:11.407Z,4.25
2022-08-23T08:27:13.211Z,5.32
2022-08-23T08:28:16.046Z,5.60
2022-08-23T08:29:18.250Z,5.20
2022-08-23T08:30:20.196Z,3.90
2022-08-23T08:31:23.422Z,3.22
2022-08-23T08:32:25.133Z,3.58
2022-08-23T08:33:30.943Z,3.30
2022-08-23T08:34:33.003Z,3.70
2022-08-23T08:35:35.962Z,3.40
2022-08-23T08:36:43.234Z,3.53
2022-08-23T08:37:45.391Z,3.58
2022-08-23T08:38:48.253Z,3.35
2022-08-23T08:39:54.547Z,3.65
2022-08-23T08:41:17.058Z,3.80
2022-08-23T08:42:56.163Z,4.35
2022-08-23T08:44:38.348Z,3.08
2022-08-23T08:45:59.248Z,3.70
2022-08-23T08:47:06.854Z,3.30
2022-08-23T08:48:15.539Z,3.72
2022-08-23T08:49:42.548Z,3.13
2022-08-23T08:50:55.720Z,3.55
2022-08-23T08:52:08.890Z,3.20
2022-08-23T08:53:28.741Z,3.50
2022-08-23T08:54:32.550Z,3.83
2022-08-23T08:55:41.026Z,4.40
2022-08-23T08:56:50.845Z,3.70
2022-08-23T08:57:59.552Z,3.28
2022-08-23T08:59:06.464Z,3.78
2022-08-23T09:00:22.185Z,3.70
2022-08-23T09:01:35.824Z,3.80
2022-08-23T09:02:38.937Z,4.22
2022-08-23T09:03:43.013Z,3.45
2022-08-23T09:04:46.440Z,3.70
2022-08-23T09:05:57.830Z,3.10
2022-08-23T09:07:21.628Z,3.13
2022-08-23T09:08:35.343Z,3.55
2022-08-23T09:09:51.753Z,3.35
2022-08-23T09:11:16.540Z,4.38
2022-08-23T09:12:32.229Z,3.35
2022-08-23T09:14:06.155Z,3.95
2022-08-23T09:15:24.011Z,4.15
2022-08-23T09:16:44.878Z,3.83
2022-08-23T09:17:55.807Z,4.03
2022-08-23T09:18:59.341Z,3.53
2022-08-23T09:20:05.069Z,3.50
2022-08-23T09:21:08.802Z,3.78
2022-08-23T09:22:13.637Z,3.45
2022-08-23T09:23:43.080Z,4.07
2022-08-23T09:24:44.810Z,3.60
2022-08-23T09:26:03.468Z,3.30
2022-08-23T09:27:06.296Z,3.50
2022-08-23T09:28:08.209Z,3.28
2022-08-23T09:29:21.461Z,3.05
2022-08-23T09:30:55.038Z,4.05
2022-08-23T09:32:25.820Z,3.53
2022-08-23T09:33:43.821Z,3.13
2022-08-23T09:34:46.707Z,3.08
2022-08-23T09:36:08.418Z,3.45
2022-08-23T09:37:16.321Z,3.78
2022-08-23T09:38:20.514Z,3.50
2022-08-23T09:39:32.186Z,4.18
2022-08-23T09:40:45.375Z,3.78
2022-08-23T09:41:48.336Z,3.85
2022-08-23T09:43:07.932Z,3.40
2022-08-23T09:44:13.781Z,3.95
2022-08-23T09:45:50.047Z,3.92
2022-08-23T09:47:06.832Z,3.88
2022-08-23T09:48:13.275Z,3.60
2022-08-23T09:49:30.130Z,3.65
2022-08-23T09:50:39.018Z,3.53
2022-08-23T09:51:42.864Z,4.72
2022-08-23T09:52:48.480Z,4.00
2022-08-23T09:54:02.971Z,3.85
2022-08-23T09:55:09.450Z,4.10
2022-08-23T09:56:15.500Z,3.35
2022-08-23T09:57:27.889Z,3.00
2022-08-23T09:58:41.619Z,3.40
2022-08-23T09:59:45.971Z,3.65
2022-08-23T10:01:14.305Z,3.05
2022-08-23T10:02:27.397Z,3.38
2022-08-23T10:03:29.825Z,3.25
2022-08-23T10:04:42.203Z,3.80
2022-08-23T10:05:49.202Z,4.10
2022-08-23T10:06:52.160Z,3.35
2022-08-23T10:07:57.303Z,4.25
2022-08-23T10:09:04.399Z,3.80
2022-08-23T10:10:24.075Z,4.20
2022-08-23T10:11:32.137Z,3.95
2022-08-23T10:12:33.844Z,3.63
2022-08-23T10:13:43.624Z,3.40
2022-08-23T10:14:45.757Z,3.58
2022-08-23T10:15:54.564Z,9.40
2022-08-23T10:17:26.223Z,4.80
2022-08-23T10:18:51.190Z,3.55
2022-08-23T10:20:22.111Z,3.88
2022-08-23T10:21:41.025Z,3.47
2022-08-23T10:22:55.974Z,3.00
2022-08-23T10:24:17.523Z,3.60
2022-08-23T10:25:42.431Z,3.35
2022-08-23T10:27:25.502Z,3.38
2022-08-23T10:29:24.791Z,2.70
2022-08-23T10:30:44.364Z,3.40
2022-08-23T10:32:10.073Z,3.25
2022-08-23T10:33:29.723Z,3.25
2022-08-23T10:35:18.996Z,3.50
2022-08-23T10:36:33.683Z,3.28
2022-08-23T10:38:00.563Z,3.33
2022-08-23T10:39:09.030Z,3.50
2022-08-23T10:40:23.316Z,2.92
2022-08-23T10:41:47.003Z,3.65
2022-08-23T10:43:16.311Z,3.45
2022-08-23T10:44:35.485Z,3.83
2022-08-23T10:45:39.144Z,3.65
2022-08-23T10:46:50.720Z,3.60
2022-08-23T10:48:22.537Z,3.45
2022-08-23T10:49:26.021Z,3.58
2022-08-23T10:50:37.898Z,3.60
2022-08-23T10:51:48.615Z,3.53
2022-08-23T10:53:09.304Z,3.60
2022-08-23T10:54:18.732Z,4.30
2022-08-23T10:55:43.824Z,3.28
2022-08-23T10:56:51.229Z,3.47
2022-08-23T10:57:53.881Z,3.53
2022-08-23T10:59:10.526Z,3.63
2022-08-23T11:00:22.657Z,3.58
2022-08-23T11:01:33.307Z,3.50
2022-08-23T11:02:44.949Z,4.28
2022-08-23T11:04:05.261Z,3.47
2022-08-23T11:05:27.268Z,3.87
2022-08-23T11:06:38.201Z,3.55
2022-08-23T11:07:43.446Z,3.70
2022-08-23T11:08:48.062Z,3.92
2022-08-23T11:09:55.604Z,5.00
2022-08-23T11:10:57.464Z,4.10
2022-08-23T11:12:21.471Z,4.40
2022-08-23T11:13:26.949Z,4.13
2022-08-23T11:14:42.655Z,4.53
2022-08-23T11:16:03.567Z,4.22
2022-08-23T11:18:33.241Z,5.00
2022-08-23T11:20:06.800Z,4.05
2022-08-23T11:21:17.259Z,5.13
2022-08-23T11:22:25.497Z,7.57
2022-08-23T11:23:44.665Z,6.03
2022-08-23T11:24:59.963Z,5.53
2022-08-23T11:26:04.614Z,4.65
2022-08-23T11:27:07.497Z,4.55
2022-08-23T11:28:24.191Z,4.05
2022-08-23T11:29:29.095Z,5.40
2022-08-23T11:30:36.561Z,6.22
2022-08-23T11:31:43.263Z,6.15
2022-08-23T11:32:45.837Z,5.50
2022-08-23T11:34:00.001Z,4.70
2022-08-23T11:35:45.005Z,4.32
2022-08-23T11:37:20.763Z,4.13
2022-08-23T11:38:47.460Z,5.00
2022-08-23T11:39:58.690Z,5.05
2022-08-23T11:41:13.406Z,4.72
2022-08-23T11:42:19.529Z,5.10
2022-08-23T11:43:45.397Z,5.32
2022-08-23T11:44:48.627Z,5.20
2022-08-23T11:45:50.724Z,5.10
2022-08-23T11:46:55.813Z,4.70
2022-08-23T11:48:37.161Z,5.22
2022-08-23T11:50:01.277Z,4.78
2022-08-23T11:51:08.795Z,5.03
2022-08-23T11:52:47.279Z,4.95
2022-08-23T11:53:54.746Z,5.47
2022-08-23T11:55:24.344Z,5.22
2022-08-23T11:56:46.605Z,5.45
2022-08-23T11:58:07.232Z,5.00
2022-08-23T12:00:53.908Z,6.10
2022-08-23T12:01:56.327Z,5.50
2022-08-23T12:03:02.363Z,5.25
2022-08-23T12:04:11.893Z,5.90
2022-08-23T12:05:21.973Z,5.00
2022-08-23T12:06:43.458Z,4.85
2022-08-23T12:08:05.915Z,5.60
2022-08-23T12:09:33.210Z,5.60
2022-08-23T12:10:41.009Z,5.40
2022-08-23T12:11:58.158Z,6.18
2022-08-23T12:13:20.540Z,5.38
2022-08-23T12:14:31.618Z,6.70
2022-08-23T12:16:16.331Z,5.20
2022-08-23T12:17:19.296Z,5.15
2022-08-23T12:18:25.223Z,5.78
2022-08-23T12:19:46.581Z,5.10
2022-08-23T12:20:49.304Z,5.10
2022-08-23T12:21:54.739Z,5.20
2022-08-23T12:23:29.486Z,5.10
2022-08-23T12:24:40.068Z,4.78
2022-08-23T12:27:18.787Z,5.00
2022-08-23T12:28:34.663Z,5.47
2022-08-23T12:30:10.922Z,4.72
2022-08-23T12:31:20.846Z,5.45
2022-08-23T12:32:59.649Z,4.95
2022-08-23T12:34:33.994Z,4.80
2022-08-23T12:35:57.264Z,5.88
2022-08-23T12:37:01.577Z,4.88
2022-08-23T12:38:21.420Z,4.43
2022-08-23T12:39:33.264Z,4.93
2022-08-23T12:40:48.000Z,4.38
2022-08-23T12:42:15.841Z,5.18
2022-08-23T12:43:23.646Z,5.32
2022-08-23T12:44:28.640Z,4.95
2022-08-23T12:45:50.614Z,5.63
2022-08-23T12:46:53.281Z,4.57
2022-08-23T12:47:58.977Z,4.70
2022-08-23T12:49:01.530Z,6.05
2022-08-23T12:50:18.106Z,5.50
2022-08-23T12:51:20.742Z,5.10
2022-08-23T12:52:26.727Z,5.35
2022-08-23T12:53:34.824Z,5.60
2022-08-23T12:54:49.644Z,5.13
2022-08-23T12:55:52.292Z,5.53
2022-08-23T12:56:55.008Z,5.75
2022-08-23T12:57:58.250Z,5.50
2022-08-23T12:59:04.696Z,5.78
2022-08-23T13:00:17.534Z,6.30
2022-08-23T13:01:39.984Z,5.72
2022-08-23T13:02:57.748Z,5.63
2022-08-23T13:04:06.003Z,5.30
2022-08-23T13:05:17.479Z,5.15
2022-08-23T13:06:24.197Z,5.18
2022-08-23T13:07:26.772Z,5.60
2022-08-23T13:08:39.045Z,6.38
2022-08-23T13:09:45.439Z,5.05
2022-08-23T13:10:57.397Z,5.88
2022-08-23T13:12:01.185Z,5.07
2022-08-23T13:13:03.435Z,5.07
2022-08-23T13:14:43.023Z,4.80
2022-08-23T13:15:55.068Z,5.47
2022-08-23T13:16:59.463Z,4.70
2022-08-23T13:18:02.000Z,5.22
2022-08-23T13:19:15.486Z,4.78
2022-08-23T13:20:23.608Z,5.50
2022-08-23T13:21:34.891Z,5.03
2022-08-23T13:23:05.643Z,5.30
2022-08-23T13:24:29.946Z,6.43
2022-08-23T13:25:41.769Z,9.88
2022-08-23T13:26:44.649Z,7.57
2022-08-23T13:27:46.366Z,8.60
2022-08-23T13:29:06.612Z,7.57
2022-08-23T13:30:08.601Z,5.38
2022-08-23T13:31:10.375Z,5.65
2022-08-23T13:32:27.658Z,5.45
2022-08-23T13:33:29.564Z,5.25
2022-08-23T13:34:44.104Z,5.70
2022-08-23T13:36:05.795Z,5.80
2022-08-23T13:37:26.316Z,5.50
2022-08-23T13:38:32.443Z,5.93
2022-08-23T13:39:34.636Z,5.53
2022-08-23T13:40:54.299Z,5.28
2022-08-23T13:41:56.773Z,6.07
2022-08-23T13:43:10.014Z,5.90
2022-08-23T13:44:16.963Z,6.57
2022-08-23T13:45:32.793Z,16.63
2022-08-23T13:46:43.019Z,8.25
2022-08-23T13:48:10.751Z,8.90
2022-08-23T13:49:21.620Z,7.05
2022-08-23T13:50:31.484Z,6.80
2022-08-23T13:51:37.288Z,5.57
2022-08-23T13:53:03.238Z,6.53
2022-08-23T13:54:06.877Z,5.75
2022-08-23T13:55:08.874Z,5.72
2022-08-23T13:56:11.084Z,7.03
2022-08-23T13:57:17.383Z,5.38
2022-08-23T13:58:31.756Z,6.68
2022-08-23T13:59:39.903Z,7.70
2022-08-23T14:00:54.985Z,6.50
2022-08-23T14:01:59.234Z,6.30
2022-08-23T14:03:01.188Z,6.05
2022-08-23T14:04:03.250Z,6.28
2022-08-23T14:05:09.583Z,6.53
2022-08-23T14:06:11.471Z,6.22
2022-08-23T14:07:13.333Z,6.72
2022-08-23T14:08:15.181Z,6.65
2022-08-23T14:09:17.326Z,6.88
2022-08-23T14:10:22.080Z,6.30
2022-08-23T14:11:24.049Z,7.03
2022-08-23T14:12:30.698Z,6.20
2022-08-23T14:13:33.218Z,6.85
2022-08-23T14:14:36.123Z,5.80
2022-08-23T14:15:58.487Z,7.00
2022-08-23T14:17:02.979Z,6.55
2022-08-23T14:18:05.284Z,6.18
2022-08-23T14:19:54.325Z,6.40
2022-08-23T14:20:33.756Z,6.18
2022-08-23T14:21:46.770Z,6.68
2022-08-23T14:22:48.626Z,6.97
2022-08-23T14:23:50.409Z,6.32
2022-08-23T14:24:52.150Z,6.38
2022-08-23T14:25:56.467Z,7.68
2022-08-23T14:26:58.494Z,6.32
2022-08-23T14:28:00.410Z,6.43
2022-08-23T14:29:02.275Z,6.03
2022-08-23T14:30:05.764Z,6.97
2022-08-23T14:31:07.583Z,6.72
2022-08-23T14:32:09.507Z,6.45
2022-08-23T14:33:11.252Z,6.43
2022-08-23T14:34:12.983Z,5.47
2022-08-23T14:35:14.970Z,6.10
2022-08-23T14:36:17.247Z,6.40
2022-08-23T14:38:02.875Z,7.55
2022-08-23T14:38:41.481Z,6.72
2022-08-23T14:39:43.506Z,6.32
2022-08-23T14:40:55.569Z,6.78
2022-08-23T14:41:59.254Z,6.72
2022-08-23T14:43:01.473Z,6.75
2022-08-23T14:44:04.167Z,6.45
2022-08-23T14:45:07.224Z,5.95
2022-08-23T14:46:08.996Z,6.43
2022-08-23T14:47:10.811Z,6.75
2022-08-23T14:48:12.755Z,6.95
2022-08-23T14:49:15.338Z,6.07
2022-08-23T14:50:19.138Z,6.78
2022-08-23T14:51:33.561Z,6.03
2022-08-23T14:52:41.487Z,6.20
2022-08-23T14:53:43.440Z,6.10
2022-08-23T14:54:45.427Z,5.53
2022-08-23T14:56:01.183Z,6.40